Time;durP1;ratioP1;P1;durP2;ratioP2;P2;SDS_P1;SDS_P2;PMS_P1;PMS_P2;Temp;Humidity;BMP_temperature;BMP_pressure;BME280_temperature;BME280_humidity;BME280_pressure;Samples;Min_cycle;Max_cycle;Signal;HPM_P1;HPM_P2
2022/06/23 00:00:49;;;;;;;25.63;19.02;;;;;;;19.75;99.63;95979.19;4881074;29;20041;-79
2022/06/23 00:03:21;;;;;;;37.00;24.40;;;;;;;19.72;99.35;95991.00;4880843;29;20060;-80
2022/06/23 00:05:54;;;;;;;29.90;21.98;;;;;;;19.70;99.44;95987.03;4881095;29;20076;-81
2022/06/23 00:08:21;;;;;;;28.55;19.67;;;;;;;19.71;99.63;95983.09;4880828;29;20052;-79
2022/06/23 00:10:52;;;;;;;25.98;19.45;;;;;;;19.75;99.65;95993.00;4881597;29;20049;-79
2022/06/23 00:13:24;;;;;;;26.23;19.80;;;;;;;19.77;100.00;95992.59;4880028;29;20045;-80
2022/06/23 00:15:54;;;;;;;26.75;19.27;;;;;;;19.80;100.00;95994.59;4881124;29;20049;-79
2022/06/23 00:18:23;;;;;;;29.83;21.08;;;;;;;19.79;99.90;96001.31;4881824;29;20053;-79
2022/06/23 00:20:54;;;;;;;28.55;18.67;;;;;;;19.79;100.00;96006.84;4882565;29;20074;-80
2022/06/23 00:23:23;;;;;;;24.65;18.25;;;;;;;19.80;99.75;96006.44;4896835;29;20049;-80
2022/06/23 00:25:57;;;;;;;31.15;19.48;;;;;;;19.81;100.00;96010.00;4903085;29;20036;-80
2022/06/23 00:28:27;;;;;;;22.67;18.58;;;;;;;19.83;99.75;96012.38;4901648;29;20037;-79
2022/06/23 00:30:57;;;;;;;24.50;20.38;;;;;;;19.78;100.00;96010.75;4899472;29;20049;-80
2022/06/23 00:33:27;;;;;;;31.00;20.30;;;;;;;19.80;100.00;96011.19;4885205;29;20045;-80
2022/06/23 00:35:54;;;;;;;25.38;19.08;;;;;;;19.83;100.00;96013.16;4882945;29;20052;-79
2022/06/23 00:38:26;;;;;;;25.20;18.52;;;;;;;19.83;100.00;96007.63;4883703;29;20060;-79
2022/06/23 00:40:55;;;;;;;26.20;19.80;;;;;;;19.84;100.00;96003.72;4881530;29;20076;-78
2022/06/23 00:43:22;;;;;;;32.10;21.77;;;;;;;19.80;100.00;96014.72;4865433;29;20537;-79
2022/06/23 00:45:54;;;;;;;29.10;21.30;;;;;;;19.83;100.00;96015.91;4865304;29;20069;-80
2022/06/23 00:48:26;;;;;;;26.10;19.73;;;;;;;19.85;100.00;96015.56;4887411;29;20029;-80
2022/06/23 00:51:00;;;;;;;34.40;23.58;;;;;;;19.85;100.00;96012.78;4882163;29;20434;-80
2022/06/23 00:53:33;;;;;;;26.58;21.63;;;;;;;19.83;100.00;96004.88;4866890;29;20056;-79
2022/06/23 00:56:13;;;;;;;28.67;21.20;;;;;;;19.84;100.00;96017.53;4865359;29;20414;-80
2022/06/23 00:58:45;;;;;;;31.83;23.80;;;;;;;19.83;100.00;96015.91;4864652;29;20060;-79
2022/06/23 01:01:17;;;;;;;34.95;23.00;;;;;;;19.81;100.00;96018.28;4863741;29;20045;-79
2022/06/23 01:03:54;;;;;;;36.67;24.97;;;;;;;19.79;100.00;96013.16;4864068;29;20048;-79
2022/06/23 01:06:30;;;;;;;36.92;25.88;;;;;;;19.80;100.00;96019.47;4864213;29;20053;-79
2022/06/23 01:09:03;;;;;;;33.10;23.75;;;;;;;19.77;100.00;96020.22;4863416;29;20057;-80
2022/06/23 01:11:37;;;;;;;33.13;23.73;;;;;;;19.74;100.00;96019.03;4865833;29;20047;-79
2022/06/23 01:14:14;;;;;;;31.10;22.80;;;;;;;19.78;100.00;96019.03;4880579;29;20057;-79
2022/06/23 01:16:46;;;;;;;28.52;21.58;;;;;;;19.78;100.00;96021.81;4881534;29;20588;-80
2022/06/23 01:20:04;;;;;;;35.00;24.17;;;;;;;19.73;100.00;96022.16;4880564;29;20064;-80
2022/06/23 01:22:46;;;;;;;30.15;22.40;;;;;;;19.74;100.00;96021.81;4881229;29;20493;-78
2022/06/23 01:25:35;;;;;;;33.05;21.17;;;;;;;19.77;100.00;96025.75;4879106;29;20714;-80
2022/06/23 01:28:08;;;;;;;28.65;20.55;;;;;;;19.73;100.00;96027.69;4881207;29;20057;-78
2022/06/23 01:30:38;;;;;;;30.48;21.63;;;;;;;19.72;100.00;96021.38;4881160;29;20060;-79
2022/06/23 01:33:16;;;;;;;30.08;21.08;;;;;;;19.72;100.00;96023.34;4879512;29;20117;-79
2022/06/23 01:35:48;;;;;;;28.92;20.33;;;;;;;19.72;100.00;96029.66;4879609;29;20049;-78
2022/06/23 01:38:21;;;;;;;25.48;19.40;;;;;;;19.71;100.00;96041.09;4879047;29;20566;-78
2022/06/23 01:40:51;;;;;;;26.58;20.42;;;;;;;19.71;100.00;96030.06;4879340;29;20524;-80
2022/06/23 01:43:23;;;;;;;26.42;19.60;;;;;;;19.69;100.00;96037.94;4879616;29;20045;-79
2022/06/23 01:45:54;;;;;;;23.10;18.25;;;;;;;19.68;100.00;96028.88;4879504;29;20063;-78
2022/06/23 01:51:06;;;;;;;29.02;20.02;;;;;;;19.70;100.00;96031.25;4878641;29;20523;-80
2022/06/23 01:53:34;;;;;;;26.85;19.95;;;;;;;19.68;100.00;96036.34;4879784;29;20069;-79
2022/06/23 01:56:15;;;;;;;24.27;17.77;;;;;;;19.69;100.00;96032.44;4880212;29;20045;-79
2022/06/23 01:59:01;;;;;;;23.33;18.35;;;;;;;19.67;100.00;96043.06;4879357;29;20044;-79
2022/06/23 02:01:36;;;;;;;25.45;18.98;;;;;;;19.66;100.00;96041.47;4883200;29;20053;-80
2022/06/23 02:04:09;;;;;;;26.13;19.45;;;;;;;19.66;99.98;96044.22;4878680;29;20049;-78
2022/06/23 02:06:44;;;;;;;25.20;18.20;;;;;;;19.65;100.00;96039.88;4879991;29;20055;-79
2022/06/23 02:09:17;;;;;;;26.05;16.85;;;;;;;19.65;100.00;96042.66;4877111;29;20057;-79
2022/06/23 02:11:46;;;;;;;23.02;18.13;;;;;;;19.64;100.00;96047.38;4878524;29;20068;-79
2022/06/23 02:14:24;;;;;;;20.52;16.75;;;;;;;19.65;100.00;96048.19;4878894;29;20413;-80
2022/06/23 02:16:58;;;;;;;21.30;17.27;;;;;;;19.64;100.00;96043.84;4878905;29;20053;-79
2022/06/23 02:19:34;;;;;;;21.30;17.50;;;;;;;19.62;100.00;96046.16;4878364;29;20049;-82
2022/06/23 02:22:10;;;;;;;26.50;19.80;;;;;;;19.60;100.00;96048.53;4879634;29;20093;-80
2022/06/23 02:24:46;;;;;;;23.88;18.48;;;;;;;19.59;99.69;96046.94;4891912;29;20041;-79
2022/06/23 02:27:18;;;;;;;28.65;19.77;;;;;;;19.55;99.32;96058.72;4899838;29;20455;-79
2022/06/23 02:29:53;;;;;;;21.50;17.23;;;;;;;19.54;99.48;96059.13;4889807;29;20056;-78
2022/06/23 02:32:27;;;;;;;21.83;18.55;;;;;;;19.52;98.70;96051.22;4884816;29;20056;-79
2022/06/23 02:35:00;;;;;;;25.08;17.85;;;;;;;19.51;98.85;96063.44;4884904;29;20049;-79
2022/06/23 02:37:55;;;;;;;22.15;17.00;;;;;;;19.51;98.88;96063.44;4883933;29;20049;-78
2022/06/23 02:40:29;;;;;;;25.13;18.92;;;;;;;19.49;98.91;96060.25;4884017;29;20057;-80
2022/06/23 02:43:01;;;;;;;28.73;20.65;;;;;;;19.43;98.83;96064.56;4883688;29;20049;-79
2022/06/23 02:46:18;;;;;;;29.25;21.33;;;;;;;19.39;98.90;96060.97;4883545;29;20056;-79
2022/06/23 02:49:23;;;;;;;24.88;18.27;;;;;;;19.42;98.69;96074.03;4824910;29;20057;-79
2022/06/23 02:52:28;;;;;;;23.83;17.33;;;;;;;19.41;99.11;96080.69;4879516;29;20049;-80
2022/06/23 02:55:16;;;;;;;20.83;16.98;;;;;;;19.44;99.15;96079.16;4871790;29;20052;-81
2022/06/23 02:57:47;;;;;;;27.42;20.52;;;;;;;19.38;99.70;96075.97;4880541;29;20516;-79
2022/06/23 03:00:20;;;;;;;29.17;20.88;;;;;;;19.39;99.67;96077.53;4880823;29;20064;-79
2022/06/23 03:02:58;;;;;;;29.27;21.73;;;;;;;19.41;99.89;96075.19;4883430;29;20116;-78
2022/06/23 03:05:37;;;;;;;32.42;24.50;;;;;;;19.34;99.91;96075.13;4882762;29;20672;-79
2022/06/23 03:08:12;;;;;;;28.92;20.60;;;;;;;19.40;100.00;96076.34;4881470;29;20049;-79
2022/06/23 03:10:54;;;;;;;32.08;21.80;;;;;;;19.42;100.00;96082.31;4882558;29;20211;-80
2022/06/23 03:13:30;;;;;;;28.58;21.15;;;;;;;19.46;99.81;96080.34;4881932;29;20048;-79
2022/06/23 03:16:09;;;;;;;29.08;20.77;;;;;;;19.43;99.65;96083.09;4881737;29;20623;-79
2022/06/23 03:18:42;;;;;;;32.80;24.05;;;;;;;19.39;100.00;96077.53;4881895;29;20041;-79
2022/06/23 03:21:16;;;;;;;41.83;27.63;;;;;;;19.30;100.00;96090.88;4881240;29;20049;-78
2022/06/23 03:23:48;;;;;;;32.70;22.77;;;;;;;19.34;100.00;96080.66;4881365;29;20052;-79
2022/06/23 03:26:20;;;;;;;27.08;20.02;;;;;;;19.38;100.00;96092.53;4880785;29;20392;-79
2022/06/23 03:28:52;;;;;;;33.83;23.80;;;;;;;19.38;99.91;96095.28;4885861;29;20049;-79
2022/06/23 03:31:23;;;;;;;26.67;19.73;;;;;;;19.36;100.00;96094.84;4882838;29;20075;-78
2022/06/23 03:33:55;;;;;;;24.88;19.73;;;;;;;19.36;99.92;96089.34;4883796;29;20060;-79
2022/06/23 03:36:26;;;;;;;34.10;21.95;;;;;;;19.36;99.95;96094.84;4881757;29;20057;-78
2022/06/23 03:41:55;;;;;;;33.67;22.23;;;;;;;19.33;100.00;96090.13;4829386;29;20064;-79
2022/06/23 03:44:28;;;;;;;30.53;21.50;;;;;;;19.25;100.00;96093.97;4862834;29;20068;-78
2022/06/23 03:46:58;;;;;;;34.38;21.27;;;;;;;19.28;99.75;96093.22;4863514;29;20073;-79
2022/06/23 03:49:38;;;;;;;35.05;23.63;;;;;;;19.21;100.00;96099.47;4863258;29;20503;-79
2022/06/23 03:52:14;;;;;;;35.22;26.23;;;;;;;19.09;100.00;96096.19;4862704;29;20049;-78
2022/06/23 03:54:48;;;;;;;40.17;25.00;;;;;;;19.11;100.00;96099.38;4862755;29;20041;-79
2022/06/23 03:57:21;;;;;;;40.03;25.77;;;;;;;19.03;100.00;96099.28;4862386;29;20490;-78
2022/06/23 04:00:00;;;;;;;34.40;22.23;;;;;;;19.10;100.00;96100.53;4862311;29;20502;-78
2022/06/23 04:02:31;;;;;;;36.70;22.60;;;;;;;19.11;100.00;96102.13;4862368;29;20464;-78
2022/06/23 04:05:10;;;;;;;27.42;19.23;;;;;;;19.19;100.00;96101.81;4872942;29;20058;-79
2022/06/23 04:07:46;;;;;;;28.13;20.98;;;;;;;19.26;100.00;96103.84;4875297;29;20041;-79
2022/06/23 04:10:15;;;;;;;31.40;21.88;;;;;;;19.13;100.00;96106.09;4889229;29;20044;-78
2022/06/23 04:12:46;;;;;;;29.77;20.00;;;;;;;19.17;100.00;96101.41;4902672;29;20044;-79
2022/06/23 04:15:17;;;;;;;37.85;23.95;;;;;;;19.11;100.00;96105.69;4902447;29;20048;-79
2022/06/23 04:17:48;;;;;;;36.47;22.85;;;;;;;19.18;100.00;96110.47;4901215;29;20096;-79
2022/06/23 04:20:19;;;;;;;32.90;22.77;;;;;;;19.13;100.00;96110.81;4900963;29;20071;-79
2022/06/23 04:22:52;;;;;;;35.38;22.85;;;;;;;19.18;100.00;96111.28;4901540;29;20052;-78
2022/06/23 04:25:22;;;;;;;29.27;18.83;;;;;;;19.23;100.00;96118.41;4900474;29;20682;-79
2022/06/23 04:27:52;;;;;;;27.83;18.88;;;;;;;19.25;99.97;96124.34;4900759;29;20068;-79
2022/06/23 04:30:23;;;;;;;26.80;19.25;;;;;;;19.20;100.00;96117.19;4899993;29;20048;-78
2022/06/23 04:32:51;;;;;;;29.15;20.67;;;;;;;19.20;100.00;96128.22;4900659;29;20063;-79
2022/06/23 04:35:26;;;;;;;35.95;19.45;;;;;;;19.09;100.00;96132.06;4903866;29;20047;-78
2022/06/23 04:38:00;;;;;;;29.38;18.05;;;;;;;19.13;100.00;96130.13;4901644;29;20044;-78
2022/06/23 04:40:31;;;;;;;26.42;17.48;;;;;;;19.09;99.55;96135.63;4889252;29;20052;-78
2022/06/23 04:43:04;;;;;;;22.60;14.85;;;;;;;19.03;99.43;96131.63;4881762;29;20060;-79
2022/06/23 04:45:40;;;;;;;24.95;13.85;;;;;;;19.02;99.07;96130.81;4881645;29;20525;-80
2022/06/23 04:48:15;;;;;;;20.92;14.23;;;;;;;19.08;99.17;96127.72;4880301;29;20060;-78
2022/06/23 04:50:48;;;;;;;23.75;13.98;;;;;;;19.01;98.84;96120.16;4881424;29;20041;-79
2022/06/23 04:53:38;;;;;;;21.33;12.75;;;;;;;19.02;98.03;96125.31;4881514;29;20049;-79
2022/06/23 04:56:12;;;;;;;22.52;12.45;;;;;;;19.07;97.51;96126.94;4865300;29;20053;-78
2022/06/23 04:58:48;;;;;;;33.72;13.52;;;;;;;19.07;97.87;96134.41;4886826;29;20071;-79
2022/06/23 05:01:18;;;;;;;20.98;11.43;;;;;;;19.08;97.53;96130.47;4888991;29;20049;-79
2022/06/23 05:03:49;;;;;;;22.63;11.90;;;;;;;18.96;97.26;96126.81;4893988;29;20045;-79
2022/06/23 05:06:28;;;;;;;17.63;9.98;;;;;;;19.03;96.60;96128.84;4891140;29;20425;-79
2022/06/23 05:08:59;;;;;;;18.52;10.68;;;;;;;19.06;97.17;96136.38;4880464;29;20056;-79
2022/06/23 05:11:31;;;;;;;19.92;10.75;;;;;;;18.89;97.61;96129.47;4880693;29;20052;-80
2022/06/23 05:14:02;;;;;;;24.30;11.70;;;;;;;18.92;97.50;96142.53;4879013;29;20105;-79
2022/06/23 05:16:34;;;;;;;16.25;9.60;;;;;;;19.13;96.97;96135.66;4879464;29;20045;-79
2022/06/23 05:19:06;;;;;;;23.55;11.02;;;;;;;19.11;96.42;96133.28;4879879;29;20041;-80
2022/06/23 05:21:41;;;;;;;18.73;9.68;;;;;;;19.19;96.08;96140.44;4878674;29;20520;-78
2022/06/23 05:24:16;;;;;;;24.80;11.27;;;;;;;19.14;95.99;96137.25;4878277;29;20073;-79
2022/06/23 05:26:49;;;;;;;14.63;9.00;;;;;;;19.28;95.43;96142.91;4878180;29;20105;-78
2022/06/23 05:29:19;;;;;;;27.67;11.00;;;;;;;19.14;96.17;96149.06;4878506;29;20059;-79
2022/06/23 05:31:51;;;;;;;14.00;8.95;;;;;;;19.20;96.05;96146.75;4879412;29;20040;-79
2022/06/23 05:34:23;;;;;;;20.67;10.52;;;;;;;19.28;96.02;96143.69;4879849;29;20056;-78
2022/06/23 05:37:00;;;;;;;18.40;9.30;;;;;;;19.37;95.28;96146.16;4880163;29;20061;-79
2022/06/23 05:39:35;;;;;;;15.98;8.70;;;;;;;19.39;95.16;96146.56;4889545;29;20099;-79
2022/06/23 05:42:10;;;;;;;20.00;10.02;;;;;;;19.33;95.37;96145.31;4900590;29;20033;-78
2022/06/23 05:44:45;;;;;;;18.73;8.20;;;;;;;19.36;95.20;96150.06;4900927;29;20041;-80
2022/06/23 05:47:14;;;;;;;20.83;8.80;;;;;;;19.17;95.17;96147.53;4899224;29;20041;-79
2022/06/23 05:49:44;;;;;;;17.52;9.25;;;;;;;19.10;95.45;96147.44;4882701;29;20055;-79
2022/06/23 05:52:16;;;;;;;18.40;9.57;;;;;;;19.09;95.25;96152.16;4888969;29;20056;-79
2022/06/23 05:54:51;;;;;;;16.42;8.40;;;;;;;19.15;95.82;96149.88;4892984;29;20052;-79
2022/06/23 05:57:26;;;;;;;13.88;7.35;;;;;;;19.24;95.31;96145.63;4889321;29;20409;-78
2022/06/23 06:00:03;;;;;;;19.13;8.68;;;;;;;19.34;96.25;96146.13;4882836;29;20052;-79
2022/06/23 06:02:38;;;;;;;20.00;8.60;;;;;;;19.21;95.94;96149.16;4883537;29;20072;-78
2022/06/23 06:05:05;;;;;;;13.77;7.63;;;;;;;19.27;95.34;96149.63;4884264;29;20553;-78
2022/06/23 06:07:37;;;;;;;16.77;8.75;;;;;;;19.34;94.91;96148.88;4882863;29;20049;-79
2022/06/23 06:10:05;;;;;;;23.88;9.30;;;;;;;19.36;93.38;96150.06;4890827;29;20055;-78
2022/06/23 06:12:35;;;;;;;15.63;7.32;;;;;;;19.41;93.51;96151.69;4901217;29;20056;-78
2022/06/23 06:15:07;;;;;;;22.38;9.02;;;;;;;19.36;93.64;96147.31;4899021;29;20051;-77
2022/06/23 06:17:36;;;;;;;16.10;8.25;;;;;;;19.49;94.10;96145.88;4900865;29;20048;-79
2022/06/23 06:20:07;;;;;;;19.52;8.50;;;;;;;19.51;93.24;96151.78;4898816;29;20056;-79
2022/06/23 06:23:00;;;;;;;19.90;8.50;;;;;;;19.68;92.78;96155.13;4903103;29;20059;-79
2022/06/23 06:25:30;;;;;;;13.75;6.75;;;;;;;19.75;93.30;96160.72;4905597;29;20481;-79
2022/06/23 06:28:01;;;;;;;14.02;7.57;;;;;;;19.85;92.39;96160.03;4904057;29;20060;-78
2022/06/23 06:30:32;;;;;;;16.45;7.22;;;;;;;19.98;91.97;96161.28;4902156;29;20049;-79
2022/06/23 06:32:59;;;;;;;12.90;6.40;;;;;;;20.11;92.13;96166.53;4901824;29;20084;-78
2022/06/23 06:35:32;;;;;;;17.77;7.65;;;;;;;20.06;91.08;96164.91;4899668;29;20052;-78
2022/06/23 06:38:03;;;;;;;;;;;;;;;20.10;90.14;96164.91;4899080;29;20437;-78
2022/06/23 06:40:30;;;;;;;23.30;7.03;;;;;;;20.11;90.52;96163.75;4879803;29;19923;-79
2022/06/23 06:43:04;;;;;;;17.15;6.57;;;;;;;20.05;90.73;96158.59;4861352;29;20057;-78
2022/06/23 06:45:36;;;;;;;15.20;7.65;;;;;;;19.90;90.57;96156.91;4861765;29;20078;-77
2022/06/23 06:48:09;;;;;;;13.32;6.55;;;;;;;20.07;90.77;96155.44;4860811;29;20066;-78
2022/06/23 06:50:40;;;;;;;19.17;8.27;;;;;;;20.09;90.62;96161.38;4861263;29;20045;-78
2022/06/23 06:53:16;;;;;;;16.90;8.88;;;;;;;20.17;89.04;96162.22;4860564;29;20053;-79
2022/06/23 06:55:47;;;;;;;20.75;9.30;;;;;;;20.14;84.71;96160.22;4860532;29;20056;-78
2022/06/23 06:58:19;;;;;;;19.55;8.85;;;;;;;20.28;85.18;96157.56;4860910;29;20045;-77
2022/06/23 07:00:51;;;;;;;18.05;9.00;;;;;;;20.40;85.16;96162.75;4861152;29;20054;-78
2022/06/23 07:03:22;;;;;;;21.90;7.97;;;;;;;20.58;84.96;96158.16;4860915;29;20414;-78
2022/06/23 07:05:55;;;;;;;22.30;8.88;;;;;;;20.73;84.09;96163.75;4861445;29;20049;-78
2022/06/23 07:08:27;;;;;;;14.48;6.93;;;;;;;20.85;84.92;96174.47;4851753;29;20053;-78
2022/06/23 07:11:01;;;;;;;18.33;7.70;;;;;;;20.91;84.45;96164.59;4860573;29;20506;-78
2022/06/23 07:13:32;;;;;;;20.63;8.85;;;;;;;20.97;82.54;96163.03;4863532;29;20065;-77
2022/06/23 07:16:05;;;;;;;24.52;9.88;;;;;;;20.89;79.88;96166.19;4864971;29;20070;-78
2022/06/23 07:18:38;;;;;;;19.00;8.43;;;;;;;20.89;80.01;96166.97;4864212;29;20041;-77
2022/06/23 07:21:14;;;;;;;17.45;8.32;;;;;;;20.95;79.40;96162.66;4863488;29;20537;-78
2022/06/23 07:23:50;;;;;;;22.02;8.77;;;;;;;20.93;79.89;96170.53;4863471;29;20119;-78
2022/06/23 07:26:33;;;;;;;21.98;8.73;;;;;;;20.83;80.18;96174.09;4863080;29;20085;-77
2022/06/23 07:29:01;;;;;;;;;;;;;;;20.93;80.21;96167.78;4863977;29;20053;-80
2022/06/23 07:31:36;;;;;;;15.55;7.85;;;;;;;21.05;79.95;96170.19;4865561;29;19924;-78
2022/06/23 07:34:08;;;;;;;18.30;7.57;;;;;;;20.93;79.05;96162.22;4870253;29;20066;-77
2022/06/23 07:36:40;;;;;;;21.17;9.10;;;;;;;20.97;79.79;96163.03;4872939;29;20513;-77
2022/06/23 07:39:11;;;;;;;21.48;8.93;;;;;;;21.11;81.41;96163.09;4870567;29;20065;-78
2022/06/23 07:41:47;;;;;;;15.07;6.85;;;;;;;21.42;82.24;96160.03;4886151;29;20048;-79
2022/06/23 07:44:20;;;;;;;15.70;8.95;;;;;;;21.48;79.92;96159.25;4885864;29;20084;-78
2022/06/23 07:46:47;;;;;;;19.10;9.55;;;;;;;21.59;78.88;96159.25;4884893;29;20057;-78
2022/06/23 07:49:14;;;;;;;21.13;7.72;;;;;;;21.70;77.71;96153.72;4884458;29;20048;-80
2022/06/23 07:51:41;;;;;;;20.73;8.15;;;;;;;21.87;75.17;96150.97;4884453;29;20497;-78
2022/06/23 07:54:15;;;;;;;22.20;8.55;;;;;;;22.06;75.82;96152.53;4881535;29;20057;-77
2022/06/23 07:56:42;;;;;;;14.50;6.85;;;;;;;22.30;77.50;96145.41;4884294;29;20049;-77
2022/06/23 07:59:12;;;;;;;17.30;9.13;;;;;;;22.30;76.61;96145.41;4883680;29;20421;-77
2022/06/23 08:01:44;;;;;;;25.98;8.13;;;;;;;22.06;74.13;96154.50;4882711;29;20037;-79
2022/06/23 08:04:26;;;;;;;17.37;7.30;;;;;;;22.01;73.52;96147.38;4881894;29;20057;-79
2022/06/23 08:06:56;;;;;;;17.98;7.35;;;;;;;21.96;74.98;96139.47;4882503;29;20053;-78
2022/06/23 08:09:28;;;;;;;18.42;7.68;;;;;;;21.97;75.44;96152.13;4883745;29;20049;-77
2022/06/23 08:14:47;;;;;;;14.77;7.35;;;;;;;21.79;74.58;96141.06;4881218;29;20060;-77
2022/06/23 08:17:16;;;;;;;14.43;7.30;;;;;;;21.80;75.18;96133.53;4880282;29;20053;-78
2022/06/23 08:19:49;;;;;;;18.27;6.45;;;;;;;22.09;73.32;96126.78;4880110;29;20045;-78
2022/06/23 08:22:20;;;;;;;16.23;6.05;;;;;;;22.22;74.17;96123.63;4880507;29;20045;-78
2022/06/23 08:24:51;;;;;;;19.98;5.85;;;;;;;22.73;74.04;96122.28;4880382;29;20045;-78
2022/06/23 08:27:21;;;;;;;20.98;6.65;;;;;;;22.92;70.11;96116.28;4880431;29;20049;-79
2022/06/23 08:29:51;;;;;;;16.88;6.45;;;;;;;22.81;69.29;96126.59;4880206;29;20509;-79
2022/06/23 08:32:20;;;;;;;19.23;6.03;;;;;;;22.78;70.57;96121.88;4880324;29;20109;-78
2022/06/23 08:34:55;;;;;;;16.60;6.97;;;;;;;22.75;70.49;96126.22;4880380;29;20048;-78
2022/06/23 08:37:24;;;;;;;14.55;5.15;;;;;;;22.76;70.98;96125.06;4880678;29;20521;-79
2022/06/23 08:39:57;;;;;;;9.55;5.10;;;;;;;22.75;72.61;96128.22;4881626;29;20049;-77
2022/06/23 08:42:33;;;;;;;13.85;5.10;;;;;;;22.85;69.86;96132.94;4879715;29;20041;-76
2022/06/23 08:45:11;;;;;;;12.63;5.30;;;;;;;23.28;72.59;96122.41;4880233;29;20053;-77
2022/06/23 08:47:46;;;;;;;12.27;4.95;;;;;;;23.29;65.05;96117.66;4879804;29;20441;-79
2022/06/23 08:50:20;;;;;;;17.50;4.30;;;;;;;23.30;65.77;96125.59;4880792;29;20057;-80
2022/06/23 08:52:54;;;;;;;14.35;4.90;;;;;;;23.10;66.25;96121.72;4880721;29;20049;-78
2022/06/23 08:55:30;;;;;;;13.23;4.30;;;;;;;23.11;63.89;96113.00;4881211;29;20045;-81
2022/06/23 08:58:04;;;;;;;14.02;4.20;;;;;;;23.11;65.37;96112.19;4880433;29;20056;-78
2022/06/23 09:00:35;;;;;;;10.32;4.55;;;;;;;23.44;68.77;96105.25;4880051;29;20490;-79
2022/06/23 09:03:08;;;;;;;11.05;3.95;;;;;;;23.48;69.92;96108.78;4879437;29;20057;-79
2022/06/23 09:05:42;;;;;;;;;;;;;;;23.45;70.88;96109.63;4880552;29;20055;-79
2022/06/23 09:08:18;;;;;;;13.40;4.15;;;;;;;23.41;62.57;96108.84;4879525;29;19931;-80
2022/06/23 09:10:55;;;;;;;13.30;4.22;;;;;;;23.28;62.95;96108.50;4880579;29;20044;-79
2022/06/23 09:13:39;;;;;;;9.98;3.20;;;;;;;23.58;66.23;96105.13;4879512;29;20081;-79
2022/06/23 09:16:22;;;;;;;11.00;4.05;;;;;;;24.08;68.51;96107.53;4880008;29;20049;-79
2022/06/23 09:19:04;;;;;;;9.77;3.85;;;;;;;24.58;69.67;96107.00;4892789;29;20041;-80
2022/06/23 09:21:42;;;;;;;13.07;3.75;;;;;;;24.66;58.52;96108.50;4896842;29;20048;-80
2022/06/23 09:24:41;;;;;;;11.95;3.97;;;;;;;24.98;62.41;96107.31;4887805;29;20049;-80
2022/06/23 09:27:15;;;;;;;10.85;4.05;;;;;;;25.10;62.94;96104.00;4885305;29;20056;-79
2022/06/23 09:29:56;;;;;;;21.20;4.07;;;;;;;25.20;61.28;96103.06;4884653;29;20464;-81
2022/06/23 09:32:36;;;;;;;13.57;4.20;;;;;;;25.34;63.01;96102.06;4884800;29;20053;-80
2022/06/23 09:35:26;;;;;;;12.48;3.80;;;;;;;25.45;56.99;96101.91;4882936;29;20094;-77
2022/06/23 09:38:12;;;;;;;12.65;4.97;;;;;;;25.52;56.42;96102.56;4884679;29;20045;-80
2022/06/23 09:40:49;;;;;;;12.30;4.88;;;;;;;25.31;56.04;96085.38;4885503;29;20037;-79
2022/06/23 09:43:40;;;;;;;11.80;3.67;;;;;;;25.37;59.97;96084.50;4867397;29;20083;-79
2022/06/23 09:46:31;;;;;;;9.73;3.40;;;;;;;25.25;55.88;96076.72;4883515;29;20060;-79
2022/06/23 09:49:16;;;;;;;13.20;4.00;;;;;;;25.01;55.47;96067.50;4883098;29;20501;-80
2022/06/23 09:51:59;;;;;;;10.13;3.50;;;;;;;24.90;57.46;96073.22;4882939;29;20450;-79
2022/06/23 09:54:50;;;;;;;10.88;4.10;;;;;;;24.89;60.78;96063.25;4880235;29;20041;-79
2022/06/23 09:57:50;;;;;;;12.02;4.10;;;;;;;25.10;61.12;96067.78;4880583;29;20056;-80
2022/06/23 10:00:19;;;;;;;12.95;4.05;;;;;;;25.36;58.16;96057.03;4870342;29;20060;-79
2022/06/23 10:03:04;;;;;;;14.13;4.50;;;;;;;25.14;60.11;96060.16;4881678;29;20054;-80
2022/06/23 10:05:45;;;;;;;15.05;4.43;;;;;;;25.13;60.76;96058.59;4879682;29;20051;-79
2022/06/23 10:08:30;;;;;;;16.30;4.57;;;;;;;25.44;61.08;96050.94;4879920;29;20501;-81
2022/06/23 10:11:26;;;;;;;11.05;4.22;;;;;;;25.69;61.55;96044.97;4881536;29;20056;-80
2022/06/23 10:14:21;;;;;;;9.45;3.83;;;;;;;25.79;58.75;96048.00;4879929;29;20458;-80
2022/06/23 10:17:10;;;;;;;12.52;4.53;;;;;;;25.85;57.63;96049.13;4879625;29;20496;-80
2022/06/23 10:19:51;;;;;;;8.55;3.53;;;;;;;26.14;58.19;96046.56;4881218;29;20049;-81
2022/06/23 10:22:34;;;;;;;11.00;4.32;;;;;;;26.07;60.02;96035.56;4879236;29;20069;-79
2022/06/23 10:25:24;;;;;;;11.52;4.43;;;;;;;26.16;59.46;96041.38;4881140;29;20049;-80
2022/06/23 10:28:08;;;;;;;11.88;4.50;;;;;;;26.31;54.18;96044.66;4881588;29;20125;-80
2022/06/23 10:30:46;;;;;;;12.52;3.72;;;;;;;26.39;52.18;96034.94;4880669;29;20045;-80
2022/06/23 10:33:46;;;;;;;15.60;3.70;;;;;;;26.27;53.98;96039.94;4880818;29;20476;-80
2022/06/23 10:36:40;;;;;;;8.38;3.75;;;;;;;26.43;57.69;96025.31;4880203;29;20425;-79
2022/06/23 10:39:22;;;;;;;11.23;3.58;;;;;;;26.60;57.76;96031.72;4879665;29;20060;-80
2022/06/23 10:42:07;;;;;;;12.15;3.97;;;;;;;26.70;56.77;96036.31;4881292;29;20049;-80
2022/06/23 10:44:59;;;;;;;8.50;3.42;;;;;;;26.62;58.24;96032.06;4880692;29;20052;-80
2022/06/23 10:47:46;;;;;;;13.40;4.03;;;;;;;26.83;54.44;96030.03;4873721;29;20382;-80
2022/06/23 10:50:28;;;;;;;13.45;3.95;;;;;;;26.96;58.77;96028.16;4881266;29;20058;-80
2022/06/23 10:53:08;;;;;;;8.90;3.37;;;;;;;27.05;54.66;96020.00;4882167;29;20060;-81
2022/06/23 10:56:02;;;;;;;13.98;3.70;;;;;;;26.88;49.11;96026.75;4883502;29;20083;-80
2022/06/23 10:58:51;;;;;;;11.60;4.15;;;;;;;26.90;51.84;96024.31;4892252;29;20108;-80
2022/06/23 11:01:34;;;;;;;8.40;3.28;;;;;;;26.94;54.43;96020.22;4893370;29;20584;-81
2022/06/23 11:04:36;;;;;;;14.95;4.45;;;;;;;26.87;57.26;96025.97;4889149;29;20538;-81
2022/06/23 11:07:26;;;;;;;9.63;4.00;;;;;;;26.97;57.50;96024.94;4835946;29;20557;-80
2022/06/23 11:10:16;;;;;;;16.98;4.53;;;;;;;26.70;54.37;96019.53;4887575;29;20108;-81
2022/06/23 11:12:57;;;;;;;10.93;3.63;;;;;;;26.89;55.43;96017.94;4892306;29;20085;-79
2022/06/23 11:15:33;;;;;;;12.20;4.22;;;;;;;26.85;53.75;96011.66;4891698;29;20445;-81
2022/06/23 11:18:37;;;;;;;11.85;3.80;;;;;;;26.84;55.57;96012.09;4894039;29;20048;-80
2022/06/23 11:21:20;;;;;;;12.40;4.13;;;;;;;26.84;56.74;96010.09;4813029;29;20058;-80
2022/06/23 11:24:00;;;;;;;13.45;3.90;;;;;;;26.53;54.80;96006.75;4883825;29;20049;-80
2022/06/23 11:26:43;;;;;;;16.50;4.88;;;;;;;26.54;54.76;96002.75;4892339;29;20052;-81
2022/06/23 11:29:28;;;;;;;13.88;4.28;;;;;;;26.65;54.52;96008.88;4890366;29;20057;-81
2022/06/23 11:32:06;;;;;;;14.45;4.07;;;;;;;26.51;54.72;95993.22;4892368;29;20101;-80
2022/06/23 11:34:56;;;;;;;10.63;3.22;;;;;;;26.46;55.80;95995.72;4888457;29;20105;-79
2022/06/23 11:37:39;;;;;;;9.75;3.92;;;;;;;26.48;57.19;95996.88;4888854;29;20049;-79
2022/06/23 11:40:21;;;;;;;11.55;3.63;;;;;;;26.72;57.76;96003.13;4888476;29;20048;-80
2022/06/23 11:43:15;;;;;;;13.60;4.38;;;;;;;26.42;54.25;95995.03;4891134;29;20056;-81
2022/06/23 11:46:06;;;;;;;7.32;3.35;;;;;;;26.56;57.79;95988.34;4888690;29;20429;-80
2022/06/23 11:49:11;;;;;;;8.77;3.35;;;;;;;26.29;55.69;95992.84;4885880;29;20052;-81
2022/06/23 11:52:04;;;;;;;11.32;3.47;;;;;;;26.29;58.96;95987.25;4866010;29;20044;-79
2022/06/23 11:54:50;;;;;;;15.65;4.20;;;;;;;26.27;56.46;95983.34;4889112;29;20056;-80
2022/06/23 11:57:32;;;;;;;14.18;3.72;;;;;;;26.48;59.18;95982.91;4890500;29;20049;-80
2022/06/23 12:00:07;;;;;;;9.98;3.60;;;;;;;26.66;58.49;95976.16;4889607;29;20064;-80
2022/06/23 12:02:44;;;;;;;13.25;3.67;;;;;;;26.74;58.13;95978.38;4888087;29;20053;-79
2022/06/23 12:05:22;;;;;;;11.02;4.57;;;;;;;26.54;57.53;95980.41;4892278;29;20068;-79
2022/06/23 12:08:01;;;;;;;10.40;3.70;;;;;;;26.42;57.90;95976.28;4893169;29;20210;-80
2022/06/23 12:10:31;;;;;;;12.15;4.40;;;;;;;26.47;55.33;95969.41;4891922;29;20041;-80
2022/06/23 12:13:02;;;;;;;8.77;3.22;;;;;;;26.62;57.26;95967.84;4896404;29;20068;-80